Flight Track Log - Related Links

Times and Time Zones

All times are in EDT time to prevent confusion due to time zone crossing. See the N935SS flight status page for this flight to view local times or setup timezone preferences in your user account.

Time Position Orientation Groundspeed Altitude Reporting Facility
EDT Latitude Longitude Course Direction KTS MPH feet Rate Location/Type
Wed 02:08:14 PM 42.2456 -83.5172 350° North 175 201 1,400  Level Cleveland Center
Wed 02:08:44 PM 42.2744 -83.5242 350° North 244 281 2,600 2,541 Climbing Cleveland Center
Wed 02:09:39 PM 42.3042 -83.5900 301° West 238 274 5,000 3,026 Climbing Cleveland Center
Wed 02:10:39 PM 42.3356 -83.6647 300° West 222 255 8,400 2,739 Climbing Cleveland Center
Wed 02:11:57 PM 42.2936 -83.7439 234° Southwest 307 353 11,300 2,203 Climbing Cleveland Center
Wed 02:12:47 PM 42.2417 -83.6628 131° Southeast 394 453 13,100 850 Climbing Cleveland Center
Wed 02:13:57 PM 42.2375 -83.5056 92° East 425 489 13,000 916 Descending Cleveland Center
Wed 02:15:00 PM 42.2333 -83.3336 90° East  Level FlightAware Approximate
Wed 02:15:57 PM 42.2681 -83.1842 90° East 408 470 16,000  Level Cleveland Center
Wed 02:16:57 PM 42.2675 -83.0300 90° East 408 470 16,000 600 Level Cleveland Center
Wed 02:17:57 PM 42.2644 -82.8728 91° East 403 464 17,200 1,900 Climbing Cleveland Center
Wed 02:18:57 PM 42.2633 -82.7100 90° East 416 479 19,800 2,500 Climbing Cleveland Center
Wed 02:19:57 PM 42.2661 -82.5500 89° East 422 486 22,200 2,250 Climbing Cleveland Center
Wed 02:20:57 PM 42.2772 -82.3903 85° East 422 486 24,300 1,900 Climbing Cleveland Center
Wed 02:21:57 PM 42.2878 -82.2308 85° East 422 486 26,000 1,650 Climbing Cleveland Center
Wed 02:22:57 PM 42.2922 -82.0681 88° East 427 491 27,600 1,550 Climbing Cleveland Center
Wed 02:23:57 PM 42.2858 -81.8939 93° East 446 513 29,100 1,350 Climbing Cleveland Center
Wed 02:24:57 PM 42.2833 -81.7394 91° East 456 525 30,300 1,400 Climbing Cleveland Center
Wed 02:25:57 PM 42.2789 -81.5711 92° East 456 525 31,900 1,550 Climbing Cleveland Center
Wed 02:26:57 PM 42.2739 -81.3997 92° East 456 525 33,400 1,500 Climbing Cleveland Center
Wed 02:27:57 PM 42.2708 -81.2314 90° East 456 525 34,900 800 Climbing Cleveland Center
Wed 02:28:00 PM 42.2668 -81.2273 90° East  Level FlightAware Approximate
Wed 02:28:57 PM 42.2653 -81.0544 92° East 461 531 35,000  Level Cleveland Center
Wed 02:29:57 PM 42.2578 -80.8553 93° East 480 552 35,900 1,250 Climbing Cleveland Center
Wed 02:30:57 PM 42.2517 -80.6700 92° East 480 552 37,500 1,500 Climbing Cleveland Center
Wed 02:31:57 PM 42.2581 -80.4961 87° East 475 547 38,900 750 Climbing Cleveland Center
Wed 02:32:57 PM 42.2722 -80.3139 84° East 481 554 39,000 50 Climbing Cleveland Center
Wed 02:33:57 PM 42.2842 -80.1258 85° East 492 566 39,000  Level Cleveland Center
Wed 02:34:57 PM 42.3000 -79.9292 84° East 509 586 39,000  Level Cleveland Center
Wed 02:35:57 PM 42.3133 -79.7381 85° East 515 593 39,000 500 Level Cleveland Center
Wed 02:36:57 PM 42.3283 -79.5442 84° East 515 593 40,000 1,000 Climbing Cleveland Center
Wed 02:37:57 PM 42.3411 -79.3583 85° East 515 593 41,000 500 Climbing Cleveland Center
Wed 02:38:57 PM 42.3536 -79.1700 85° East 508 585 41,000  Level Cleveland Center
Wed 02:39:57 PM 42.3636 -78.9786 86° East 508 585 41,000  Level Cleveland Center
Wed 02:40:57 PM 42.3756 -78.8069 85° East 508 585 41,000  Level Cleveland Center
Wed 02:41:57 PM 42.3892 -78.6125 85° East 508 585 41,000  Level Cleveland Center
Wed 02:42:57 PM 42.3981 -78.4153 86° East 519 597 41,000  Level Cleveland Center
Wed 02:43:57 PM 42.4089 -78.2181 86° East 519 597 41,000  Level Cleveland Center
Wed 02:44:57 PM 42.4194 -78.0236 86° East 519 597 41,000 -550 Level Cleveland Center
Wed 02:45:57 PM 42.4289 -77.8067 87° East 524 603 39,900 -1,300 Descending Cleveland Center
Wed 02:46:57 PM 42.4428 -77.6092 84° East 524 603 38,400 -1,471 Descending Cleveland Center
Wed 02:49:25 PM 42.4658 -77.1356 86° East 523 602 34,800 -1,493 Descending Boston Center
Wed 02:50:22 PM 42.4739 -76.9389 87° East 523 602 33,300 -915 Descending Boston Center
Wed 02:51:23 PM 42.4839 -76.7342 86° East 523 602 33,000 -148 Descending Boston Center
Wed 02:52:24 PM 42.4914 -76.5319 87° East 534 615 33,000 -99 Level Boston Center
Wed 02:53:24 PM 42.4711 -76.3333 98° East 534 615 32,800 -1,091 Descending Boston Center
Wed 02:54:25 PM 42.4317 -76.1422 106° East 529 609 30,800 -2,085 Descending Boston Center
Wed 02:55:22 PM 42.3919 -75.9544 106° East 521 600 28,700 -2,000 Descending Boston Center
Wed 02:56:22 PM 42.3611 -75.8036 105° East 521 600 26,900 -2,182 Descending Boston Center
Wed 02:57:23 PM 42.3147 -75.5989 107° East 521 600 24,300 -4,377 Descending Boston Center
Wed 02:58:24 PM 42.2758 -75.4144 106° East 516 594 18,000 -2,132 Descending Boston Center
Wed 02:59:24 PM 42.2389 -75.2333 105° East 516 594 20,000  Climbing Boston Center
Wed 03:00:22 PM 42.1992 -75.0661 108° East 489 563 18,000 -1,017 Descending Boston Center
Wed 03:01:22 PM 42.1528 -74.8989 110° East 478 550 18,000  Level Boston Center
Wed 03:02:23 PM 42.0872 -74.7481 120° Southeast 468 539 18,000 -627 Level Boston Center
Wed 03:03:36 PM 42.0036 -74.5439 119° Southeast 478 550 16,600 -1,308 Descending Boston Center
Wed 03:04:36 PM 41.9375 -74.3964 121° Southeast 468 539 15,100 -793 Descending Boston Center
Wed 03:05:37 PM 41.8347 -74.3125 149° Southeast 435 501 15,000 -305 Descending Boston Center
Wed 03:06:34 PM 41.7297 -74.2258 148° Southeast 440 506 14,500 -1,800 Descending Boston Center
Wed 03:07:47 PM 41.6103 -74.1339 150° Southeast 430 495 11,100 -2,489 Descending Boston Center
Wed 03:08:08 PM 41.5667 -74.1000 150° Southeast 382 440 10,600 -1,481 Descending New York TRACON
Wed 03:09:08 PM 41.5000 -74.0333 143° Southeast 319 367 9,100 -2,000 Descending New York TRACON
Wed 03:10:08 PM 41.4167 -73.9833 156° South 316 364 6,600 -2,000 Descending New York TRACON
Wed 03:11:08 PM 41.3500 -73.9167 143° Southeast 295 339 5,100 -1,667 Descending New York TRACON
Wed 03:12:14 PM 41.2667 -73.8667 156° South 283 326 3,100 -1,000 Descending New York TRACON
Wed 03:13:14 PM 41.2167 -73.8167 143° Southeast 264 304 3,000 -400 Descending New York TRACON
Wed 03:14:14 PM 41.1500 -73.7833 159° South 204 235 2,300 -800 Descending New York TRACON
Wed 03:15:14 PM 41.1167 -73.7500 143° Southeast 147 169 1,400 -800 Descending New York TRACON
Wed 03:16:14 PM 41.0833 -73.7167 143° Southeast 140 161 700 -700 Descending New York TRACON
Wed 03:18:00 PM 41.0667 -73.7000 246° West  Level FlightAware Approximate
Wed 03:25:00 PM 41.0669 -73.7076 246° West  Level Estimated

Login

Don't have an account? Register now (free) for customized features, flight alerts, and more!